createdAt,value
2017-10-05T00:01:37.982Z,1.40
2017-10-05T00:04:05.003Z,1.80
2017-10-05T00:06:31.295Z,1.80
2017-10-05T00:08:57.563Z,1.43
2017-10-05T00:11:23.796Z,1.63
2017-10-05T00:13:50.102Z,1.60
2017-10-05T00:16:17.130Z,2.00
2017-10-05T00:18:43.388Z,2.03
2017-10-05T00:21:09.629Z,1.40
2017-10-05T00:23:36.678Z,1.40
2017-10-05T00:26:03.018Z,1.30
2017-10-05T00:28:29.313Z,1.83
2017-10-05T00:30:56.394Z,1.30
2017-10-05T00:33:23.410Z,1.30
2017-10-05T00:35:49.663Z,1.40
2017-10-05T00:38:15.951Z,1.00
2017-10-05T00:40:42.958Z,1.50
2017-10-05T00:43:09.210Z,1.47
2017-10-05T00:45:36.954Z,1.20
2017-10-05T00:48:03.213Z,1.13
2017-10-05T00:50:30.222Z,1.70
2017-10-05T00:52:56.510Z,1.40
2017-10-05T00:55:23.672Z,2.00
2017-10-05T00:57:50.694Z,1.90
2017-10-05T01:00:16.967Z,2.27
2017-10-05T01:02:43.949Z,2.33
2017-10-05T01:05:10.221Z,2.73
2017-10-05T01:07:36.500Z,1.97
2017-10-05T01:10:02.782Z,2.70
2017-10-05T01:12:29.041Z,2.50
2017-10-05T01:14:55.338Z,3.00
2017-10-05T01:17:21.630Z,3.17
2017-10-05T01:19:48.617Z,4.70
2017-10-05T01:22:14.886Z,4.23
2017-10-05T01:24:41.147Z,3.60
2017-10-05T01:29:40.396Z,4.67
2017-10-05T01:32:06.660Z,4.77
2017-10-05T01:34:32.906Z,5.60
2017-10-05T01:36:59.185Z,5.33
2017-10-05T01:39:26.174Z,5.50
2017-10-05T01:41:52.459Z,5.17
2017-10-05T01:44:19.500Z,5.10
2017-10-05T01:46:45.759Z,4.90
2017-10-05T01:49:12.009Z,5.20
2017-10-05T01:51:38.274Z,5.63
2017-10-05T01:54:04.529Z,5.70
2017-10-05T01:56:30.939Z,5.17
2017-10-05T01:58:57.234Z,6.93
2017-10-05T02:01:23.502Z,5.17
2017-10-05T02:03:49.731Z,6.80
2017-10-05T02:06:16.022Z,7.27
2017-10-05T02:08:42.261Z,6.33
2017-10-05T02:11:08.564Z,6.90
2017-10-05T02:13:34.850Z,6.30
2017-10-05T02:16:01.966Z,6.70
2017-10-05T02:18:28.229Z,6.90
2017-10-05T02:20:54.506Z,6.97
2017-10-05T02:23:20.759Z,6.80
2017-10-05T02:25:47.018Z,6.93
2017-10-05T02:28:13.304Z,6.70
2017-10-05T02:30:39.555Z,7.47
2017-10-05T02:33:05.858Z,8.07
2017-10-05T02:35:33.022Z,7.20
2017-10-05T02:38:00.025Z,7.53
2017-10-05T02:40:26.278Z,6.47
2017-10-05T02:42:52.551Z,8.70
2017-10-05T02:45:18.836Z,7.00
2017-10-05T02:47:45.854Z,6.00
2017-10-05T02:50:12.321Z,7.23
2017-10-05T02:52:38.566Z,7.97
2017-10-05T02:55:04.831Z,7.77
2017-10-05T02:57:32.108Z,7.13
2017-10-05T02:59:58.366Z,7.37
2017-10-05T03:02:24.611Z,7.33
2017-10-05T03:04:50.884Z,8.03
2017-10-05T03:07:17.143Z,7.30
2017-10-05T03:09:43.415Z,8.10
2017-10-05T03:12:09.702Z,8.67
2017-10-05T03:14:36.701Z,7.63
2017-10-05T03:17:02.968Z,7.30
2017-10-05T03:19:29.243Z,7.67
2017-10-05T03:21:55.490Z,7.70
2017-10-05T03:24:21.758Z,7.80
2017-10-05T03:26:48.018Z,8.30
2017-10-05T03:29:15.028Z,7.83
2017-10-05T03:31:41.262Z,7.80
2017-10-05T03:34:07.527Z,7.67
2017-10-05T03:36:33.793Z,7.87
2017-10-05T03:39:00.814Z,8.30
2017-10-05T03:41:27.075Z,8.27
2017-10-05T03:43:54.073Z,8.47
2017-10-05T03:46:20.327Z,9.00
2017-10-05T03:48:46.631Z,8.03
2017-10-05T03:51:12.924Z,7.23
2017-10-05T03:53:39.191Z,8.90
2017-10-05T03:56:05.491Z,7.70
2017-10-05T03:58:31.896Z,8.77
2017-10-05T04:00:58.190Z,8.40
2017-10-05T04:03:25.226Z,10.30
2017-10-05T04:05:52.206Z,7.70
2017-10-05T04:08:18.507Z,9.00
2017-10-05T04:10:45.544Z,9.50
2017-10-05T04:13:13.319Z,11.53
2017-10-05T04:15:39.579Z,11.20
2017-10-05T04:18:05.878Z,11.90
2017-10-05T04:20:33.650Z,10.67
2017-10-05T04:22:59.919Z,10.60
2017-10-05T04:25:26.974Z,10.50
2017-10-05T04:27:53.967Z,10.40
2017-10-05T04:30:20.234Z,10.97
2017-10-05T04:32:46.500Z,10.80
2017-10-05T04:35:13.499Z,10.57
2017-10-05T04:37:39.778Z,10.30
2017-10-05T04:40:06.038Z,10.60
2017-10-05T04:42:32.332Z,10.23
2017-10-05T04:45:00.131Z,9.07
2017-10-05T04:47:27.170Z,9.50
2017-10-05T04:49:54.190Z,9.20
2017-10-05T04:52:20.441Z,9.67
2017-10-05T04:54:46.754Z,8.90
2017-10-05T04:57:13.010Z,9.33
2017-10-05T04:59:41.694Z,8.20
2017-10-05T05:02:08.007Z,8.20
2017-10-05T05:04:34.253Z,9.60
2017-10-05T05:07:00.518Z,9.07
2017-10-05T05:09:26.813Z,8.67
2017-10-05T05:11:53.078Z,9.17
2017-10-05T05:14:20.926Z,8.57
2017-10-05T05:16:47.235Z,8.40
2017-10-05T05:19:13.576Z,7.77
2017-10-05T05:21:39.831Z,7.80
2017-10-05T05:24:06.126Z,8.43
2017-10-05T05:26:33.127Z,9.20
2017-10-05T05:28:59.408Z,8.50
2017-10-05T05:31:26.435Z,7.53
2017-10-05T05:33:52.690Z,8.37
2017-10-05T05:36:18.987Z,7.30
2017-10-05T05:38:45.253Z,8.13
2017-10-05T05:41:11.518Z,6.10
2017-10-05T05:43:37.784Z,7.80
2017-10-05T05:46:04.087Z,6.77
2017-10-05T05:48:30.348Z,6.50
2017-10-05T05:50:56.623Z,6.23
2017-10-05T05:53:22.905Z,6.17
2017-10-05T05:55:49.295Z,5.37
2017-10-05T05:58:15.658Z,5.93
2017-10-05T06:00:42.995Z,5.20
2017-10-05T06:03:09.265Z,7.77
2017-10-05T06:05:35.535Z,6.17
2017-10-05T06:08:01.835Z,7.27
2017-10-05T06:10:28.112Z,6.50
2017-10-05T06:12:54.370Z,5.80
2017-10-05T06:15:22.200Z,4.40
2017-10-05T06:17:48.571Z,3.73
2017-10-05T06:20:14.916Z,4.97
2017-10-05T06:22:41.189Z,5.13
2017-10-05T06:25:08.226Z,4.60
2017-10-05T06:27:35.260Z,2.93
2017-10-05T06:30:02.309Z,3.47
2017-10-05T06:32:28.538Z,2.80
2017-10-05T06:34:54.787Z,2.77
2017-10-05T06:37:21.055Z,4.90
2017-10-05T06:39:47.332Z,4.50
2017-10-05T06:42:15.082Z,3.23
2017-10-05T06:44:41.379Z,6.60
2017-10-05T06:47:08.407Z,7.63
2017-10-05T06:49:35.403Z,10.17
2017-10-05T06:52:01.729Z,5.07
2017-10-05T06:54:27.995Z,4.20
2017-10-05T06:56:54.293Z,3.70
2017-10-05T06:59:21.315Z,3.53
2017-10-05T07:01:48.574Z,3.43
2017-10-05T07:04:16.319Z,4.50
2017-10-05T07:06:42.602Z,3.33
2017-10-05T07:09:09.595Z,3.87
2017-10-05T07:11:35.868Z,3.77
2017-10-05T07:14:02.158Z,3.40
2017-10-05T07:16:28.419Z,2.87
2017-10-05T07:18:54.666Z,3.73
2017-10-05T07:21:21.677Z,3.50
2017-10-05T07:23:47.930Z,3.90
2017-10-05T07:26:14.173Z,2.97
2017-10-05T07:28:40.526Z,3.87
2017-10-05T07:31:06.775Z,3.70
2017-10-05T07:33:33.023Z,3.90
2017-10-05T07:35:59.334Z,4.00
2017-10-05T07:38:26.330Z,3.80
2017-10-05T07:40:52.590Z,3.70
2017-10-05T07:43:18.862Z,3.13
2017-10-05T07:45:45.864Z,2.87
2017-10-05T07:48:12.110Z,3.20
2017-10-05T07:50:38.383Z,4.17
2017-10-05T07:53:06.119Z,3.50
2017-10-05T07:55:33.106Z,3.13
2017-10-05T07:57:59.387Z,3.10
2017-10-05T08:00:25.674Z,2.60
2017-10-05T08:02:52.786Z,2.70
2017-10-05T08:05:19.102Z,3.10
2017-10-05T08:07:45.383Z,2.10
2017-10-05T08:10:11.606Z,1.43
2017-10-05T08:12:37.891Z,1.60
2017-10-05T08:15:04.177Z,1.47
2017-10-05T08:17:30.469Z,1.70
2017-10-05T08:19:57.490Z,3.20
2017-10-05T08:22:25.238Z,2.30
2017-10-05T08:24:51.526Z,6.10
2017-10-05T08:27:17.812Z,2.23
2017-10-05T08:29:44.084Z,1.77
2017-10-05T08:32:10.335Z,1.60
2017-10-05T08:34:36.584Z,1.33
2017-10-05T08:37:02.834Z,1.70
2017-10-05T08:39:29.122Z,1.07
2017-10-05T08:41:55.440Z,1.00
2017-10-05T08:44:23.199Z,2.10
2017-10-05T08:46:49.474Z,1.80
2017-10-05T08:49:16.518Z,1.40
2017-10-05T08:51:43.551Z,1.77
2017-10-05T08:54:09.814Z,1.77
2017-10-05T08:56:36.862Z,1.43
2017-10-05T08:59:03.130Z,1.50
2017-10-05T09:01:29.418Z,2.70
2017-10-05T09:03:56.642Z,2.03
2017-10-05T09:06:22.915Z,2.43
2017-10-05T09:08:49.199Z,2.00
2017-10-05T09:11:15.470Z,1.90
2017-10-05T09:13:41.751Z,1.33
2017-10-05T09:16:08.770Z,2.00
2017-10-05T09:18:35.810Z,2.57
2017-10-05T09:21:02.120Z,2.20
2017-10-05T09:23:28.394Z,2.07
2017-10-05T09:25:54.698Z,1.60
2017-10-05T09:28:20.968Z,1.30
2017-10-05T09:30:47.974Z,2.07
2017-10-05T09:33:14.256Z,1.70
2017-10-05T09:35:40.534Z,0.80
2017-10-05T09:38:06.786Z,1.27
2017-10-05T09:40:33.074Z,1.10
2017-10-05T09:42:59.335Z,2.07
2017-10-05T09:45:25.664Z,0.90
2017-10-05T09:47:52.666Z,0.80
2017-10-05T09:50:18.918Z,0.97
2017-10-05T09:52:45.220Z,1.30
2017-10-05T09:55:11.514Z,1.20
2017-10-05T09:57:38.523Z,1.17
2017-10-05T10:00:04.788Z,0.80
2017-10-05T10:02:31.062Z,0.80
2017-10-05T10:04:57.499Z,0.97
2017-10-05T10:07:23.756Z,0.80
2017-10-05T10:09:50.039Z,1.77
2017-10-05T10:12:17.038Z,0.90
2017-10-05T10:14:43.295Z,1.63
2017-10-05T10:17:09.594Z,1.93
2017-10-05T10:19:35.858Z,1.00
2017-10-05T10:22:02.139Z,1.17
2017-10-05T10:24:29.170Z,1.90
2017-10-05T10:26:55.433Z,1.50
2017-10-05T10:29:22.574Z,1.90
2017-10-05T10:31:49.663Z,1.60
2017-10-05T10:34:15.946Z,2.27
2017-10-05T10:36:42.222Z,2.60
2017-10-05T10:39:08.522Z,2.57
2017-10-05T10:41:34.854Z,3.47
2017-10-05T10:44:01.888Z,2.53
2017-10-05T10:46:29.671Z,2.50
2017-10-05T10:48:55.928Z,2.40
2017-10-05T10:51:22.977Z,2.50
2017-10-05T10:53:49.276Z,2.83
2017-10-05T10:56:15.531Z,3.30
2017-10-05T10:58:41.811Z,3.20
2017-10-05T11:01:08.090Z,3.30
2017-10-05T11:03:34.364Z,3.00
2017-10-05T11:06:00.820Z,3.33
2017-10-05T11:08:27.123Z,3.37
2017-10-05T11:10:54.851Z,3.83
2017-10-05T11:13:21.113Z,4.40
2017-10-05T11:15:47.387Z,3.43
2017-10-05T11:18:14.665Z,3.33
2017-10-05T11:20:40.933Z,2.93
2017-10-05T11:23:07.214Z,2.73
2017-10-05T11:25:34.234Z,3.27
2017-10-05T11:28:00.518Z,2.37
2017-10-05T11:30:27.540Z,2.63
2017-10-05T11:32:54.563Z,1.80
2017-10-05T11:35:20.974Z,1.80
2017-10-05T11:37:47.285Z,1.10
2017-10-05T11:40:15.324Z,0.60
2017-10-05T11:42:41.679Z,0.67
2017-10-05T11:45:07.992Z,0.40
2017-10-05T11:47:34.246Z,0.37
2017-10-05T11:50:01.270Z,0.47
2017-10-05T11:52:27.734Z,0.70
2017-10-05T11:54:54.750Z,0.70
2017-10-05T11:57:21.282Z,0.60
2017-10-05T11:59:47.671Z,1.00
2017-10-05T12:02:13.951Z,0.70
2017-10-05T12:04:40.693Z,0.83
2017-10-05T12:07:07.870Z,1.00
2017-10-05T12:09:34.181Z,0.70
2017-10-05T12:12:00.491Z,1.10
2017-10-05T12:14:27.524Z,0.87
2017-10-05T12:16:53.887Z,1.10
2017-10-05T12:19:20.148Z,0.77
2017-10-05T12:21:46.458Z,1.23
2017-10-05T12:24:13.499Z,0.77
2017-10-05T12:26:40.515Z,0.50
2017-10-05T12:29:06.811Z,0.60
2017-10-05T12:31:34.104Z,0.70
2017-10-05T12:34:00.354Z,0.60
2017-10-05T12:36:26.735Z,0.60
2017-10-05T12:38:53.807Z,0.70
2017-10-05T12:41:20.063Z,0.60
2017-10-05T12:43:46.359Z,0.73
2017-10-05T12:46:13.697Z,0.90
2017-10-05T12:48:39.990Z,0.53
2017-10-05T12:51:06.375Z,0.73
2017-10-05T12:53:32.629Z,0.40
2017-10-05T12:55:58.983Z,0.80
2017-10-05T12:58:25.298Z,0.70
2017-10-05T13:00:52.294Z,1.00
2017-10-05T13:03:18.583Z,1.30
2017-10-05T13:05:45.641Z,0.87
2017-10-05T13:08:12.746Z,0.90
2017-10-05T13:10:39.036Z,0.97
2017-10-05T13:13:06.063Z,0.80
2017-10-05T13:15:32.314Z,1.00
2017-10-05T13:17:59.326Z,1.20
2017-10-05T13:20:25.604Z,1.10
2017-10-05T13:22:52.639Z,0.70
2017-10-05T13:25:18.886Z,0.83
2017-10-05T13:27:45.179Z,0.73
2017-10-05T13:30:11.446Z,2.47
2017-10-05T13:32:37.698Z,1.20
2017-10-05T13:35:04.018Z,1.30
2017-10-05T13:37:30.303Z,0.87
2017-10-05T13:39:56.566Z,0.83
2017-10-05T13:42:22.873Z,0.93
2017-10-05T13:44:49.118Z,1.23
2017-10-05T13:47:15.390Z,0.80
2017-10-05T13:49:41.680Z,1.90
2017-10-05T13:52:07.954Z,1.00
2017-10-05T13:54:34.221Z,0.93
2017-10-05T13:57:01.254Z,1.23
2017-10-05T13:59:27.502Z,0.80
2017-10-05T14:01:54.488Z,0.80
2017-10-05T14:04:20.745Z,0.70
2017-10-05T14:06:46.985Z,0.77
2017-10-05T14:09:13.491Z,1.53
2017-10-05T14:11:39.788Z,0.97
2017-10-05T14:14:06.042Z,1.37
2017-10-05T14:16:33.046Z,1.57
2017-10-05T14:18:59.369Z,1.30
2017-10-05T14:21:25.617Z,1.20
2017-10-05T14:23:51.858Z,0.90
2017-10-05T14:26:18.154Z,1.50
2017-10-05T14:28:44.407Z,0.70
2017-10-05T14:31:10.647Z,1.03
2017-10-05T14:33:36.937Z,1.07
2017-10-05T14:36:03.191Z,1.20
2017-10-05T14:38:29.457Z,1.10
2017-10-05T14:41:02.541Z,1.20
2017-10-05T14:43:28.790Z,1.30
2017-10-05T14:45:55.077Z,2.50
2017-10-05T14:48:22.112Z,2.47
2017-10-05T14:50:49.130Z,1.40
2017-10-05T14:53:15.370Z,1.30
2017-10-05T14:55:41.678Z,1.83
2017-10-05T14:58:07.914Z,1.50
2017-10-05T15:00:34.171Z,1.50
2017-10-05T15:03:00.434Z,1.17
2017-10-05T15:05:26.720Z,1.40
2017-10-05T15:07:53.025Z,1.10
2017-10-05T15:10:19.564Z,1.83
2017-10-05T15:12:45.888Z,1.53
2017-10-05T15:15:12.906Z,1.57
2017-10-05T15:17:39.187Z,2.03
2017-10-05T15:20:05.434Z,1.57
2017-10-05T15:22:32.462Z,1.40
2017-10-05T15:24:59.832Z,2.77
2017-10-05T15:27:26.085Z,2.50
2017-10-05T15:29:53.083Z,3.30
2017-10-05T15:32:19.366Z,1.80
2017-10-05T15:34:46.371Z,2.43
2017-10-05T15:37:12.626Z,2.60
2017-10-05T15:39:40.403Z,15.13
2017-10-05T15:42:08.147Z,3.13
2017-10-05T15:44:34.395Z,2.50
2017-10-05T15:47:01.427Z,2.30
2017-10-05T15:49:27.693Z,3.23
2017-10-05T15:51:55.423Z,2.10
2017-10-05T15:54:21.718Z,2.33
2017-10-05T15:56:48.738Z,1.53
2017-10-05T15:59:15.070Z,1.40
2017-10-05T16:01:41.444Z,2.87
2017-10-05T16:04:08.461Z,3.17
2017-10-05T16:06:34.715Z,2.10
2017-10-05T16:09:02.498Z,2.10
2017-10-05T16:11:29.585Z,1.27
2017-10-05T16:13:55.876Z,2.00
2017-10-05T16:16:22.951Z,1.60
2017-10-05T16:18:49.224Z,1.73
2017-10-05T16:21:15.562Z,2.20
2017-10-05T16:23:41.843Z,1.80
2017-10-05T16:26:08.847Z,2.20
2017-10-05T16:28:35.160Z,2.57
2017-10-05T16:31:01.487Z,2.00
2017-10-05T16:33:27.761Z,1.40
2017-10-05T16:35:54.007Z,1.77
2017-10-05T16:38:20.326Z,1.90
2017-10-05T16:40:46.596Z,1.97
2017-10-05T16:43:12.873Z,2.60
2017-10-05T16:45:39.270Z,2.07
2017-10-05T16:48:06.385Z,2.07
2017-10-05T16:50:34.272Z,2.53
2017-10-05T16:53:00.539Z,2.40
2017-10-05T16:55:28.271Z,4.23
2017-10-05T16:57:54.568Z,2.53
2017-10-05T17:00:21.966Z,2.90
2017-10-05T17:02:48.387Z,3.77
2017-10-05T17:05:14.733Z,2.67
2017-10-05T17:07:41.018Z,2.83
2017-10-05T17:10:07.293Z,2.40
2017-10-05T17:12:33.743Z,5.20
2017-10-05T17:15:00.043Z,2.87
2017-10-05T17:17:26.300Z,4.67
2017-10-05T17:19:52.554Z,3.50
2017-10-05T17:22:18.883Z,3.40
2017-10-05T17:24:45.421Z,3.30
2017-10-05T17:27:11.711Z,2.37
2017-10-05T17:29:38.046Z,3.30
2017-10-05T17:32:05.071Z,2.70
2017-10-05T17:34:31.368Z,2.43
2017-10-05T17:36:57.694Z,2.73
2017-10-05T17:39:24.681Z,1.90
2017-10-05T17:41:51.307Z,3.33
2017-10-05T17:44:17.754Z,2.30
2017-10-05T17:46:44.062Z,3.10
2017-10-05T17:49:10.318Z,4.10
2017-10-05T17:51:36.610Z,2.07
2017-10-05T17:54:02.892Z,2.10
2017-10-05T17:56:29.254Z,3.13
2017-10-05T17:58:55.561Z,3.60
2017-10-05T18:01:21.826Z,3.07
2017-10-05T18:03:48.069Z,3.37
2017-10-05T18:06:14.465Z,2.83
2017-10-05T18:08:40.825Z,2.50
2017-10-05T18:11:07.153Z,8.67
2017-10-05T18:13:33.658Z,6.37
2017-10-05T18:16:00.751Z,6.13
2017-10-05T18:18:27.070Z,4.40
2017-10-05T18:20:53.381Z,6.60
2017-10-05T18:23:19.686Z,4.73
2017-10-05T18:25:45.962Z,6.50
2017-10-05T18:28:12.256Z,4.20
2017-10-05T18:30:38.531Z,3.90
2017-10-05T18:33:05.749Z,3.27
2017-10-05T18:35:32.143Z,3.13
2017-10-05T18:37:58.441Z,3.37
2017-10-05T18:40:25.490Z,3.57
2017-10-05T18:42:51.818Z,2.80
2017-10-05T18:45:18.840Z,2.87
2017-10-05T18:47:45.127Z,4.03
2017-10-05T18:50:11.531Z,2.87
2017-10-05T18:52:37.841Z,3.37
2017-10-05T18:55:04.200Z,3.50
2017-10-05T18:57:30.689Z,4.20
2017-10-05T18:59:57.736Z,3.80
2017-10-05T19:02:24.828Z,3.80
2017-10-05T19:04:51.304Z,4.13
2017-10-05T19:07:17.643Z,3.43
2017-10-05T19:09:51.727Z,3.67
2017-10-05T19:12:18.036Z,3.60
2017-10-05T19:14:44.527Z,4.00
2017-10-05T19:17:10.850Z,3.70
2017-10-05T19:19:37.142Z,3.63
2017-10-05T19:22:03.492Z,3.20
2017-10-05T19:24:29.973Z,3.60
2017-10-05T19:26:56.302Z,3.03
2017-10-05T19:29:22.559Z,3.33
2017-10-05T19:31:48.877Z,3.03
2017-10-05T19:34:15.227Z,2.67
2017-10-05T19:36:41.535Z,7.80
2017-10-05T19:39:07.862Z,21.50
2017-10-05T19:41:34.118Z,8.20
2017-10-05T19:44:00.416Z,3.63
2017-10-05T19:46:26.791Z,3.80
2017-10-05T19:48:53.075Z,4.23
2017-10-05T19:51:19.420Z,3.23
2017-10-05T19:53:45.756Z,4.03
2017-10-05T19:56:12.753Z,3.60
2017-10-05T19:58:39.037Z,4.13
2017-10-05T20:01:06.128Z,3.00
2017-10-05T20:03:32.439Z,2.80
2017-10-05T20:05:59.442Z,4.37
2017-10-05T20:08:25.906Z,3.13
2017-10-05T20:10:59.438Z,2.70
2017-10-05T20:13:29.279Z,43.97
2017-10-05T20:15:55.708Z,14.43
2017-10-05T20:21:45.643Z,5.00
2017-10-05T20:24:18.039Z,3.47
2017-10-05T20:29:58.855Z,4.83
2017-10-05T20:32:35.098Z,4.33
2017-10-05T20:35:01.484Z,3.47
2017-10-05T20:37:27.759Z,7.13
2017-10-05T20:39:54.759Z,5.60
2017-10-05T20:42:21.092Z,3.50
2017-10-05T20:44:47.387Z,3.73
2017-10-05T20:47:13.653Z,4.57
2017-10-05T20:49:39.983Z,2.90
2017-10-05T20:52:06.291Z,3.10
2017-10-05T20:54:32.581Z,3.73
2017-10-05T20:56:58.883Z,3.30
2017-10-05T20:59:25.183Z,3.83
2017-10-05T21:01:52.207Z,3.80
2017-10-05T21:04:19.314Z,4.43
2017-10-05T21:06:45.575Z,9.90
2017-10-05T21:09:11.853Z,8.77
2017-10-05T21:11:38.215Z,3.43
2017-10-05T21:14:05.236Z,3.97
2017-10-05T21:16:31.661Z,2.60
2017-10-05T21:18:57.992Z,4.10
2017-10-05T21:21:24.250Z,3.00
2017-10-05T21:23:50.511Z,2.93
2017-10-05T21:26:17.533Z,2.10
2017-10-05T21:28:43.795Z,2.83
2017-10-05T21:31:10.795Z,3.37
2017-10-05T21:33:37.112Z,3.00
2017-10-05T21:36:03.383Z,1.97
2017-10-05T21:38:29.641Z,2.03
2017-10-05T21:40:55.922Z,1.63
2017-10-05T21:43:22.203Z,2.10
2017-10-05T21:45:48.447Z,1.87
2017-10-05T21:48:14.736Z,2.27
2017-10-05T21:50:40.986Z,1.70
2017-10-05T21:53:07.235Z,2.00
2017-10-05T21:55:33.534Z,1.97
2017-10-05T21:57:59.803Z,8.80
2017-10-05T22:00:26.076Z,28.97
2017-10-05T22:02:53.107Z,7.00
2017-10-05T22:05:19.379Z,2.77
2017-10-05T22:07:45.626Z,2.30
2017-10-05T22:10:11.932Z,2.10
2017-10-05T22:12:38.951Z,2.90
2017-10-05T22:15:05.234Z,1.90
2017-10-05T22:17:31.799Z,2.83
2017-10-05T22:19:58.057Z,3.70
2017-10-05T22:22:24.307Z,2.73
2017-10-05T22:24:50.591Z,2.23
2017-10-05T22:27:16.882Z,3.33
2017-10-05T22:29:43.149Z,3.03
2017-10-05T22:32:10.212Z,19.87
2017-10-05T22:34:37.224Z,7.23
2017-10-05T22:37:03.470Z,4.60
2017-10-05T22:39:30.519Z,2.37
2017-10-05T22:41:57.521Z,2.50
2017-10-05T22:44:23.784Z,2.50
2017-10-05T22:46:50.084Z,2.30
2017-10-05T22:49:16.387Z,2.33
2017-10-05T22:51:42.631Z,2.20
2017-10-05T22:54:09.670Z,2.20
2017-10-05T22:56:37.422Z,2.60
2017-10-05T22:59:03.695Z,2.20
2017-10-05T23:01:30.744Z,1.87
2017-10-05T23:03:57.736Z,2.87
2017-10-05T23:06:23.988Z,2.40
2017-10-05T23:08:50.275Z,2.67
2017-10-05T23:11:16.567Z,2.47
2017-10-05T23:13:42.819Z,3.50
2017-10-05T23:16:09.132Z,2.10
2017-10-05T23:18:36.342Z,2.60
2017-10-05T23:21:02.611Z,3.20
2017-10-05T23:23:28.900Z,11.80
2017-10-05T23:25:55.172Z,22.33
2017-10-05T23:28:21.420Z,2.90
2017-10-05T23:30:47.719Z,2.30
2017-10-05T23:33:13.975Z,3.47
2017-10-05T23:35:40.219Z,2.97
2017-10-05T23:38:06.524Z,2.67
2017-10-05T23:40:32.791Z,2.70
2017-10-05T23:42:59.071Z,2.40
2017-10-05T23:45:25.379Z,2.60
2017-10-05T23:47:51.643Z,2.97
2017-10-05T23:50:18.619Z,2.67
2017-10-05T23:52:44.901Z,2.30
2017-10-05T23:55:11.160Z,2.23
2017-10-05T23:57:37.394Z,2.43
